| time (UTC) | temp F | wind direction | speed MPH | gust MPH | rain 1hr in | rain 24hr in | rain mn in | humidity % | barometer mb |
| 20260508224537 | 82 | 355 | 3.0 | 8.0 | 0.00 | 0.00 | 0.00 | 13 | 1015.1 |
| 20260508223041 | 82 | 352 | 2.0 | 7.0 | 0.00 | 0.00 | 0.00 | 17 | 1015.2 |
| 20260508221537 | 80 | 0 | 1.0 | 8.0 | 0.00 | 0.00 | 0.00 | 12 | 1015.4 |
| 20260508220039 | 80 | 276 | 4.0 | 8.0 | 0.00 | 0.00 | 0.00 | 17 | 1015.6 |
| 20260508214537 | 80 | 333 | 4.0 | 9.0 | 0.00 | 0.00 | 0.00 | 15 | 1015.8 |
| 20260508213037 | 80 | 267 | 2.0 | 9.0 | 0.00 | 0.00 | 0.00 | 14 | 1016.0 |
| 20260508211535 | 80 | 0 | 4.0 | 9.0 | 0.00 | 0.00 | 0.00 | 14 | 1016.1 |
| 20260508210039 | 80 | 328 | 2.0 | 7.0 | 0.00 | 0.00 | 0.00 | 15 | 1016.4 |
| 20260508204801 | 80 | 323 | 1.0 | 5.0 | 0.00 | 0.00 | 0.00 | 18 | 1016.5 |
| 20260508203041 | 79 | 333 | 1.0 | 7.0 | 0.00 | 0.00 | 0.00 | 15 | 1016.4 |
| 20260508201547 | 81 | 309 | 3.0 | 6.0 | 0.00 | 0.00 | 0.00 | 19 | 1016.6 |
| 20260508200038 | 81 | 0 | 1.0 | 3.0 | 0.00 | 0.00 | 0.00 | 15 | 1016.7 |
| 20260508194537 | 79 | 303 | 1.0 | 6.0 | 0.00 | 0.00 | 0.00 | 19 | 1016.8 |
| 20260508193037 | 78 | 262 | 1.0 | 6.0 | 0.00 | 0.00 | 0.00 | 22 | 1017.2 |
| 20260508191539 | 77 | 257 | 4.0 | 10.0 | 0.00 | 0.00 | 0.00 | 18 | 1017.3 |
| 20260508190037 | 78 | 322 | 2.0 | 5.0 | 0.00 | 0.00 | 0.00 | 18 | 1017.5 |
| 20260508184538 | 77 | 34 | 1.0 | 4.0 | 0.00 | 0.00 | 0.00 | 21 | 1017.8 |
| 20260508183039 | 76 | 261 | 3.0 | 7.0 | 0.00 | 0.00 | 0.00 | 19 | 1018.0 |
| 20260508181552 | 76 | 335 | 1.0 | 4.0 | 0.00 | 0.00 | 0.00 | 24 | 1018.0 |
| 20260508180037 | 75 | 292 | 1.0 | 6.0 | 0.00 | 0.00 | 0.00 | 25 | 1018.1 |
| 20260508174549 | 75 | 0 | 0.0 | 3.0 | 0.00 | 0.00 | 0.00 | 28 | 1018.1 |
| 20260508173043 | 75 | 232 | 2.0 | 6.0 | 0.00 | 0.00 | 0.00 | 25 | 1018.3 |
| 20260508171537 | 74 | 234 | 1.0 | 5.0 | 0.00 | 0.00 | 0.00 | 29 | 1018.2 |
| 20260508170037 | 73 | 334 | 1.0 | 7.0 | 0.00 | 0.00 | 0.00 | 31 | 1018.4 |
| 20260508164538 | 72 | 274 | 1.0 | 7.0 | 0.00 | 0.00 | 0.00 | 32 | 1018.3 |
| 20260508163038 | 71 | 259 | 1.0 | 6.0 | 0.00 | 0.00 | 0.00 | 32 | 1018.2 |
| 20260508161539 | 70 | 3 | 3.0 | 8.0 | 0.00 | 0.00 | 0.00 | 31 | 1018.4 |
| 20260508160036 | 70 | 324 | 2.0 | 6.0 | 0.00 | 0.00 | 0.00 | 34 | 1018.4 |
| 20260508154537 | 69 | 297 | 1.0 | 7.0 | 0.00 | 0.00 | 0.00 | 36 | 1018.3 |
| 20260508153038 | 68 | 303 | 1.0 | 7.0 | 0.00 | 0.00 | 0.00 | 36 | 1018.3 |
| 20260508151542 | 67 | 279 | 0.0 | 4.0 | 0.00 | 0.00 | 0.00 | 41 | 1018.4 |
| 20260508150037 | 66 | 0 | 0.0 | 3.0 | 0.00 | 0.00 | 0.00 | 41 | 1018.4 |
| 20260508144544 | 63 | 290 | 0.0 | 3.0 | 0.00 | 0.00 | 0.00 | 41 | 1018.3 |
| 20260508143035 | 60 | 284 | 0.0 | 2.0 | 0.00 | 0.00 | 0.00 | 40 | 1018.3 |
| 20260508141606 | 56 | 293 | 0.0 | 1.0 | 0.00 | 0.00 | 0.00 | 47 | 1018.2 |
| 20260508140039 | 54 | 0 | 0.0 | 2.0 | 0.00 | 0.00 | 0.00 | 47 | 1018.1 |
| 20260508134551 | 52 | 0 | 0.0 | 1.0 | 0.00 | 0.00 | 0.00 | 50 | 1017.9 |
| 20260508133037 | 52 | 0 | 0.0 | 0.0 | 0.00 | 0.00 | 0.00 | 49 | 1017.9 |
| 20260508131537 | 54 | 0 | 0.0 | 0.0 | 0.00 | 0.00 | 0.00 | 48 | 1017.7 |
| 20260508130035 | 56 | 0 | 0.0 | 2.0 | 0.00 | 0.00 | 0.00 | 43 | 1017.5 |
| 20260508124539 | 56 | 0 | 0.0 | 4.0 | 0.00 | 0.00 | 0.00 | 44 | 1017.5 |
| 20260508123046 | 55 | 0 | 0.0 | 3.0 | 0.00 | 0.00 | 0.00 | 44 | 1017.3 |
| 20260508121537 | 54 | 273 | 0.0 | 2.0 | 0.00 | 0.00 | 0.00 | 44 | 1017.2 |
| 20260508120037 | 55 | 0 | 0.0 | 1.0 | 0.00 | 0.00 | 0.00 | 44 | 1017.2 |
| 20260508114539 | 56 | 0 | 1.0 | 3.0 | 0.00 | 0.00 | 0.00 | 40 | 1017.1 |
| 20260508113048 | 57 | 0 | 0.0 | 2.0 | 0.00 | 0.00 | 0.00 | 40 | 1016.9 |
| 20260508111537 | 58 | 0 | 0.0 | 4.0 | 0.00 | 0.00 | 0.00 | 38 | 1016.9 |
| 20260508110038 | 57 | 268 | 0.0 | 3.0 | 0.00 | 0.00 | 0.00 | 38 | 1016.8 |
| 20260508104539 | 59 | 240 | 0.0 | 4.0 | 0.00 | 0.00 | 0.00 | 36 | 1016.7 |
| 20260508103039 | 58 | 0 | 1.0 | 4.0 | 0.00 | 0.00 | 0.00 | 37 | 1016.6 |
| 20260508101537 | 57 | 0 | 0.0 | 4.0 | 0.00 | 0.00 | 0.00 | 38 | 1016.6 |
| 20260508100035 | 56 | 297 | 0.0 | 3.0 | 0.00 | 0.00 | 0.00 | 41 | 1016.6 |
| 20260508094538 | 54 | 0 | 0.0 | 0.0 | 0.00 | 0.00 | 0.00 | 46 | 1016.6 |
| 20260508093044 | 56 | 0 | 0.0 | 0.0 | 0.00 | 0.00 | 0.00 | 44 | 1016.6 |
| 20260508091549 | 58 | 0 | 0.0 | 1.0 | 0.00 | 0.00 | 0.00 | 39 | 1016.6 |
| 20260508090041 | 60 | 0 | 0.0 | 2.0 | 0.00 | 0.00 | 0.00 | 39 | 1016.6 |
| 20260508084538 | 60 | 0 | 0.0 | 4.0 | 0.00 | 0.00 | 0.00 | 38 | 1016.5 |
| 20260508083053 | 59 | 0 | 0.0 | 3.0 | 0.00 | 0.00 | 0.00 | 41 | 1016.6 |
| 20260508081539 | 60 | 0 | 0.0 | 3.0 | 0.00 | 0.00 | 0.00 | 41 | 1016.7 |
| 20260508080039 | 60 | 0 | 0.0 | 1.0 | 0.00 | 0.00 | 0.00 | 41 | 1016.7 |
| 20260508074548 | 60 | 0 | 0.0 | 2.0 | 0.00 | 0.00 | 0.00 | 42 | 1016.6 |
| 20260508073037 | 61 | 0 | 0.0 | 1.0 | 0.00 | 0.00 | 0.00 | 42 | 1016.6 |
| 20260508071537 | 62 | 0 | 0.0 | 3.0 | 0.00 | 0.00 | 0.00 | 42 | 1016.5 |
| 20260508070035 | 62 | 0 | 0.0 | 3.0 | 0.00 | 0.00 | 0.00 | 42 | 1016.5 |
| 20260508064540 | 63 | 0 | 0.0 | 3.0 | 0.00 | 0.00 | 0.00 | 42 | 1016.5 |
| 20260508063038 | 64 | 0 | 1.0 | 3.0 | 0.00 | 0.00 | 0.00 | 41 | 1016.5 |
| 20260508061537 | 64 | 275 | 1.0 | 4.0 | 0.00 | 0.00 | 0.00 | 42 | 1016.5 |
| 20260508060037 | 65 | 281 | 1.0 | 5.0 | 0.00 | 0.00 | 0.00 | 43 | 1016.4 |
| 20260508054536 | 65 | 294 | 1.0 | 5.0 | 0.00 | 0.00 | 0.00 | 42 | 1016.4 |
| 20260508053035 | 65 | 0 | 1.0 | 4.0 | 0.00 | 0.00 | 0.00 | 42 | 1016.4 |
| 20260508051535 | 65 | 0 | 0.0 | 4.0 | 0.00 | 0.00 | 0.00 | 42 | 1016.5 |
| 20260508050038 | 66 | 277 | 0.0 | 4.0 | 0.00 | 0.00 | 0.00 | 41 | 1016.6 |
| 20260508044538 | 68 | 0 | 1.0 | 5.0 | 0.00 | 0.00 | 0.00 | 39 | 1016.4 |
| 20260508043043 | 70 | 289 | 2.0 | 5.0 | 0.00 | 0.00 | 0.00 | 37 | 1016.1 |
| 20260508041542 | 71 | 308 | 4.0 | 9.0 | 0.00 | 0.00 | 0.00 | 36 | 1015.9 |
| 20260508040035 | 71 | 274 | 3.0 | 9.0 | 0.00 | 0.00 | 0.00 | 35 | 1015.8 |
| 20260508034538 | 72 | 330 | 2.0 | 8.0 | 0.00 | 0.00 | 0.00 | 34 | 1015.5 |
| 20260508033038 | 73 | 279 | 3.0 | 6.0 | 0.00 | 0.00 | 0.00 | 32 | 1015.2 |
| 20260508031537 | 74 | 317 | 2.0 | 8.0 | 0.00 | 0.00 | 0.00 | 30 | 1015.0 |
| 20260508030043 | 75 | 300 | 3.0 | 8.0 | 0.00 | 0.00 | 0.00 | 26 | 1014.8 |
| 20260508024540 | 76 | 291 | 2.0 | 8.0 | 0.00 | 0.00 | 0.00 | 23 | 1014.6 |
| 20260508023038 | 77 | 290 | 3.0 | 10.0 | 0.00 | 0.00 | 0.00 | 21 | 1014.5 |
| 20260508021546 | 79 | 313 | 3.0 | 9.0 | 0.00 | 0.00 | 0.00 | 19 | 1014.4 |
| 20260508020038 | 80 | 302 | 4.0 | 10.0 | 0.00 | 0.00 | 0.00 | 18 | 1014.3 |
| 20260508014537 | 81 | 347 | 5.0 | 11.0 | 0.00 | 0.00 | 0.00 | 16 | 1014.2 |
| 20260508013041 | 82 | 331 | 5.0 | 11.0 | 0.00 | 0.00 | 0.00 | 16 | 1014.1 |
| 20260508011537 | 82 | 15 | 4.0 | 8.0 | 0.00 | 0.00 | 0.00 | 17 | 1013.9 |
| 20260508010038 | 83 | 296 | 3.0 | 14.0 | 0.00 | 0.00 | 0.00 | 18 | 1014.0 |
| 20260508004540 | 83 | 252 | 5.0 | 10.0 | 0.00 | 0.00 | 0.00 | 17 | 1014.1 |
| 20260508003038 | 83 | 34 | 5.0 | 15.0 | 0.00 | 0.00 | 0.00 | 18 | 1014.0 |
| 20260508001539 | 84 | 266 | 3.0 | 11.0 | 0.00 | 0.00 | 0.00 | 18 | 1013.8 |
| 20260508000036 | 84 | 284 | 5.0 | 9.0 | 0.00 | 0.00 | 0.00 | 17 | 1013.7 |
| 20260507234537 | 84 | 307 | 3.0 | 10.0 | 0.00 | 0.00 | 0.00 | 17 | 1013.7 |
| 20260507233038 | 84 | 319 | 4.0 | 12.0 | 0.00 | 0.00 | 0.00 | 19 | 1013.7 |
| 20260507231537 | 84 | 316 | 5.0 | 12.0 | 0.00 | 0.00 | 0.00 | 18 | 1013.7 |
| 20260507230037 | 84 | 302 | 3.0 | 15.0 | 0.00 | 0.00 | 0.00 | 18 | 1013.8 |